sensor_id;sensor_type;location;lat;lon;timestamp;pressure;altitude;pressure_sealevel;temperature;humidity
69855;BME280;57146;48.140;16.304;2023-01-26T00:01:24;100072.00;;;-0.17;100.00
69855;BME280;57146;48.140;16.304;2023-01-26T00:03:52;100062.47;;;-0.23;100.00
69855;BME280;57146;48.140;16.304;2023-01-26T00:06:21;100055.31;;;-0.21;100.00
69855;BME280;57146;48.140;16.304;2023-01-26T00:09:13;100056.28;;;-0.22;100.00
69855;BME280;57146;48.140;16.304;2023-01-26T00:11:41;100056.72;;;-0.25;100.00
69855;BME280;57146;48.140;16.304;2023-01-26T00:14:08;100047.38;;;-0.26;100.00
69855;BME280;57146;48.140;16.304;2023-01-26T00:16:37;100048.03;;;-0.37;100.00
69855;BME280;57146;48.140;16.304;2023-01-26T00:19:05;100054.75;;;-0.30;100.00
69855;BME280;57146;48.140;16.304;2023-01-26T00:21:32;100048.00;;;-0.31;100.00
69855;BME280;57146;48.140;16.304;2023-01-26T00:23:59;100040.03;;;-0.29;100.00
69855;BME280;57146;48.140;16.304;2023-01-26T00:26:30;100040.66;;;-0.34;100.00
69855;BME280;57146;48.140;16.304;2023-01-26T00:28:59;100047.00;;;-0.30;100.00
69855;BME280;57146;48.140;16.304;2023-01-26T00:31:27;100044.22;;;-0.28;100.00
69855;BME280;57146;48.140;16.304;2023-01-26T00:33:55;100043.22;;;-0.27;100.00
69855;BME280;57146;48.140;16.304;2023-01-26T00:36:22;100042.41;;;-0.28;100.00
69855;BME280;57146;48.140;16.304;2023-01-26T00:38:49;100040.44;;;-0.32;100.00
69855;BME280;57146;48.140;16.304;2023-01-26T00:41:16;100034.66;;;-0.28;100.00
69855;BME280;57146;48.140;16.304;2023-01-26T00:43:48;100038.81;;;-0.27;100.00
69855;BME280;57146;48.140;16.304;2023-01-26T00:46:14;100038.81;;;-0.27;100.00
69855;BME280;57146;48.140;16.304;2023-01-26T00:48:43;100032.47;;;-0.31;100.00
69855;BME280;57146;48.140;16.304;2023-01-26T00:51:09;100022.50;;;-0.27;100.00
69855;BME280;57146;48.140;16.304;2023-01-26T00:54:03;100011.94;;;-0.26;100.00
69855;BME280;57146;48.140;16.304;2023-01-26T00:56:31;100012.31;;;-0.22;100.00
69855;BME280;57146;48.140;16.304;2023-01-26T00:58:57;100008.00;;;-0.28;100.00
69855;BME280;57146;48.140;16.304;2023-01-26T01:01:28;100015.75;;;-0.28;100.00
69855;BME280;57146;48.140;16.304;2023-01-26T01:03:55;100013.16;;;-0.28;100.00
69855;BME280;57146;48.140;16.304;2023-01-26T01:06:46;100011.78;;;-0.31;100.00
69855;BME280;57146;48.140;16.304;2023-01-26T01:09:16;100008.41;;;-0.31;100.00
69855;BME280;57146;48.140;16.304;2023-01-26T01:11:43;100006.81;;;-0.32;100.00
69855;BME280;57146;48.140;16.304;2023-01-26T01:14:35;100001.06;;;-0.34;100.00
69855;BME280;57146;48.140;16.304;2023-01-26T01:17:04;99996.69;;;-0.34;100.00
69855;BME280;57146;48.140;16.304;2023-01-26T01:19:31;100001.25;;;-0.36;100.00
69855;BME280;57146;48.140;16.304;2023-01-26T01:21:59;99998.66;;;-0.36;100.00
69855;BME280;57146;48.140;16.304;2023-01-26T01:24:26;99997.28;;;-0.32;100.00
69855;BME280;57146;48.140;16.304;2023-01-26T01:26:56;99987.91;;;-0.33;100.00
69855;BME280;57146;48.140;16.304;2023-01-26T01:29:23;99987.13;;;-0.33;100.00
69855;BME280;57146;48.140;16.304;2023-01-26T01:31:51;99987.91;;;-0.33;100.00
69855;BME280;57146;48.140;16.304;2023-01-26T01:34:18;99983.75;;;-0.34;100.00
69855;BME280;57146;48.140;16.304;2023-01-26T01:37:11;99979.22;;;-0.38;100.00
69855;BME280;57146;48.140;16.304;2023-01-26T01:39:38;99979.56;;;-0.35;100.00
69855;BME280;57146;48.140;16.304;2023-01-26T01:42:06;99979.56;;;-0.35;100.00
69855;BME280;57146;48.140;16.304;2023-01-26T01:44:35;99978.56;;;-0.34;100.00
69855;BME280;57146;48.140;16.304;2023-01-26T01:47:27;99971.81;;;-0.35;100.00
69855;BME280;57146;48.140;16.304;2023-01-26T01:50:21;99979.78;;;-0.36;100.00
69855;BME280;57146;48.140;16.304;2023-01-26T01:52:49;99966.84;;;-0.36;100.00
69855;BME280;57146;48.140;16.304;2023-01-26T01:55:17;99962.41;;;-0.29;100.00
69855;BME280;57146;48.140;16.304;2023-01-26T01:57:52;99970.53;;;-0.26;100.00
69855;BME280;57146;48.140;16.304;2023-01-26T02:00:22;99963.00;;;-0.27;100.00
69855;BME280;57146;48.140;16.304;2023-01-26T02:03:00;99957.03;;;-0.28;100.00
69855;BME280;57146;48.140;16.304;2023-01-26T02:05:32;99949.47;;;-0.29;100.00
69855;BME280;57146;48.140;16.304;2023-01-26T02:08:03;99940.13;;;-0.30;100.00
69855;BME280;57146;48.140;16.304;2023-01-26T02:10:31;99948.69;;;-0.30;100.00
69855;BME280;57146;48.140;16.304;2023-01-26T02:12:59;99934.38;;;-0.32;100.00
69855;BME280;57146;48.140;16.304;2023-01-26T02:15:27;99931.59;;;-0.31;100.00
69855;BME280;57146;48.140;16.304;2023-01-26T02:17:57;99928.41;;;-0.33;100.00
69855;BME280;57146;48.140;16.304;2023-01-26T02:20:56;99932.00;;;-0.34;100.00
69855;BME280;57146;48.140;16.304;2023-01-26T02:26:19;99931.41;;;-0.36;100.00
69855;BME280;57146;48.140;16.304;2023-01-26T02:28:51;99923.03;;;-0.31;100.00
69855;BME280;57146;48.140;16.304;2023-01-26T02:31:18;99919.22;;;-0.29;100.00
69855;BME280;57146;48.140;16.304;2023-01-26T02:33:47;99914.47;;;-0.32;100.00
69855;BME280;57146;48.140;16.304;2023-01-26T02:36:22;99913.84;;;-0.27;100.00
69855;BME280;57146;48.140;16.304;2023-01-26T02:41:40;99911.25;;;-0.27;100.00
69855;BME280;57146;48.140;16.304;2023-01-26T02:44:09;99911.44;;;-0.29;100.00
69855;BME280;57146;48.140;16.304;2023-01-26T02:46:37;99901.28;;;-0.23;100.00
69855;BME280;57146;48.140;16.304;2023-01-26T02:49:04;99911.19;;;-0.20;100.00
69855;BME280;57146;48.140;16.304;2023-01-26T02:51:31;99909.03;;;-0.23;100.00
69855;BME280;57146;48.140;16.304;2023-01-26T02:53:58;99900.47;;;-0.24;100.00
69855;BME280;57146;48.140;16.304;2023-01-26T02:56:28;99890.56;;;-0.27;100.00
69855;BME280;57146;48.140;16.304;2023-01-26T02:58:55;99889.53;;;-0.26;100.00
69855;BME280;57146;48.140;16.304;2023-01-26T03:01:23;99886.16;;;-0.27;100.00
69855;BME280;57146;48.140;16.304;2023-01-26T03:03:54;99892.91;;;-0.26;100.00
69855;BME280;57146;48.140;16.304;2023-01-26T03:06:23;99886.94;;;-0.26;100.00
69855;BME280;57146;48.140;16.304;2023-01-26T03:08:52;99894.53;;;-0.25;100.00
69855;BME280;57146;48.140;16.304;2023-01-26T03:11:21;99891.47;;;-0.21;100.00
69855;BME280;57146;48.140;16.304;2023-01-26T03:13:48;99886.59;;;-0.30;100.00
69855;BME280;57146;48.140;16.304;2023-01-26T03:16:16;99888.63;;;-0.32;100.00
69855;BME280;57146;48.140;16.304;2023-01-26T03:18:44;99883.28;;;-0.37;100.00
69855;BME280;57146;48.140;16.304;2023-01-26T03:21:13;99882.25;;;-0.36;100.00
69855;BME280;57146;48.140;16.304;2023-01-26T03:23:42;99886.44;;;-0.35;100.00
69855;BME280;57146;48.140;16.304;2023-01-26T03:26:11;99879.66;;;-0.36;100.00
69855;BME280;57146;48.140;16.304;2023-01-26T03:28:38;99882.72;;;-0.39;100.00
69855;BME280;57146;48.140;16.304;2023-01-26T03:31:06;99875.94;;;-0.40;100.00
69855;BME280;57146;48.140;16.304;2023-01-26T03:33:58;99874.50;;;-0.36;100.00
69855;BME280;57146;48.140;16.304;2023-01-26T03:36:31;99871.53;;;-0.39;100.00
69855;BME280;57146;48.140;16.304;2023-01-26T03:39:01;99872.13;;;-0.37;100.00
69855;BME280;57146;48.140;16.304;2023-01-26T03:41:28;99877.09;;;-0.36;100.00
69855;BME280;57146;48.140;16.304;2023-01-26T03:43:59;99865.16;;;-0.37;100.00
69855;BME280;57146;48.140;16.304;2023-01-26T03:46:26;99872.91;;;-0.37;100.00
69855;BME280;57146;48.140;16.304;2023-01-26T03:48:54;99867.75;;;-0.37;100.00
69855;BME280;57146;48.140;16.304;2023-01-26T03:51:21;99864.00;;;-0.41;100.00
69855;BME280;57146;48.140;16.304;2023-01-26T03:53:49;99858.41;;;-0.38;100.00
69855;BME280;57146;48.140;16.304;2023-01-26T03:56:16;99863.16;;;-0.35;100.00
69855;BME280;57146;48.140;16.304;2023-01-26T03:58:47;99865.38;;;-0.38;100.00
69855;BME280;57146;48.140;16.304;2023-01-26T04:01:42;99855.41;;;-0.35;100.00
69855;BME280;57146;48.140;16.304;2023-01-26T04:04:10;99857.41;;;-0.37;100.00
69855;BME280;57146;48.140;16.304;2023-01-26T04:06:40;99854.03;;;-0.37;100.00
69855;BME280;57146;48.140;16.304;2023-01-26T04:09:10;99847.28;;;-0.38;100.00
69855;BME280;57146;48.140;16.304;2023-01-26T04:11:38;99846.50;;;-0.39;100.00
69855;BME280;57146;48.140;16.304;2023-01-26T04:14:05;99841.50;;;-0.40;100.00
69855;BME280;57146;48.140;16.304;2023-01-26T04:16:58;99839.72;;;-0.40;100.00
69855;BME280;57146;48.140;16.304;2023-01-26T04:19:25;99843.91;;;-0.39;100.00
69855;BME280;57146;48.140;16.304;2023-01-26T04:21:52;99839.09;;;-0.35;100.00
69855;BME280;57146;48.140;16.304;2023-01-26T04:24:20;99837.34;;;-0.41;100.00
69855;BME280;57146;48.140;16.304;2023-01-26T04:26:51;99837.91;;;-0.39;100.00
69855;BME280;57146;48.140;16.304;2023-01-26T04:29:22;99830.16;;;-0.39;100.00
69855;BME280;57146;48.140;16.304;2023-01-26T04:32:14;99836.16;;;-0.39;100.00
69855;BME280;57146;48.140;16.304;2023-01-26T04:34:42;99826.94;;;-0.35;100.00
69855;BME280;57146;48.140;16.304;2023-01-26T04:37:18;99830.16;;;-0.39;100.00
69855;BME280;57146;48.140;16.304;2023-01-26T04:39:46;99821.97;;;-0.36;100.00
69855;BME280;57146;48.140;16.304;2023-01-26T04:42:14;99825.34;;;-0.36;100.00
69855;BME280;57146;48.140;16.304;2023-01-26T04:44:42;99821.78;;;-0.35;100.00
69855;BME280;57146;48.140;16.304;2023-01-26T04:47:09;99821.59;;;-0.40;100.00
69855;BME280;57146;48.140;16.304;2023-01-26T04:49:36;99827.78;;;-0.41;100.00
69855;BME280;57146;48.140;16.304;2023-01-26T04:52:03;99833.56;;;-0.39;100.00
69855;BME280;57146;48.140;16.304;2023-01-26T04:54:33;99818.25;;;-0.40;100.00
69855;BME280;57146;48.140;16.304;2023-01-26T04:57:00;99816.25;;;-0.38;100.00
69855;BME280;57146;48.140;16.304;2023-01-26T04:59:30;99818.59;;;-0.37;100.00
69855;BME280;57146;48.140;16.304;2023-01-26T05:01:59;99818.59;;;-0.37;100.00
69855;BME280;57146;48.140;16.304;2023-01-26T05:04:26;99813.00;;;-0.34;100.00
69855;BME280;57146;48.140;16.304;2023-01-26T05:06:54;99807.81;;;-0.34;100.00
69855;BME280;57146;48.140;16.304;2023-01-26T05:09:23;99809.47;;;-0.39;100.00
69855;BME280;57146;48.140;16.304;2023-01-26T05:12:17;99807.03;;;-0.34;100.00
69855;BME280;57146;48.140;16.304;2023-01-26T05:15:11;99798.69;;;-0.36;100.00
69855;BME280;57146;48.140;16.304;2023-01-26T05:17:49;99795.13;;;-0.35;100.00
69855;BME280;57146;48.140;16.304;2023-01-26T05:20:39;99801.28;;;-0.36;100.00
69855;BME280;57146;48.140;16.304;2023-01-26T05:23:15;99803.31;;;-0.38;100.00
69855;BME280;57146;48.140;16.304;2023-01-26T05:26:02;99799.34;;;-0.41;100.00
69855;BME280;57146;48.140;16.304;2023-01-26T05:28:37;99803.50;;;-0.40;100.00
69855;BME280;57146;48.140;16.304;2023-01-26T05:31:09;99804.75;;;-0.42;100.00
69855;BME280;57146;48.140;16.304;2023-01-26T05:33:36;99802.16;;;-0.42;100.00
69855;BME280;57146;48.140;16.304;2023-01-26T05:36:05;99800.34;;;-0.42;100.00
69855;BME280;57146;48.140;16.304;2023-01-26T05:38:34;99800.00;;;-0.45;100.00
69855;BME280;57146;48.140;16.304;2023-01-26T05:41:00;99797.97;;;-0.43;100.00
69855;BME280;57146;48.140;16.304;2023-01-26T05:43:34;99798.19;;;-0.45;100.00
69855;BME280;57146;48.140;16.304;2023-01-26T05:46:10;99802.94;;;-0.42;100.00
69855;BME280;57146;48.140;16.304;2023-01-26T05:48:41;99806.50;;;-0.43;100.00
69855;BME280;57146;48.140;16.304;2023-01-26T05:51:10;99809.09;;;-0.43;100.00
69855;BME280;57146;48.140;16.304;2023-01-26T05:53:38;99808.13;;;-0.42;100.00
69855;BME280;57146;48.140;16.304;2023-01-26T05:56:35;99808.13;;;-0.42;100.00
69855;BME280;57146;48.140;16.304;2023-01-26T05:59:06;99810.47;;;-0.40;100.00
69855;BME280;57146;48.140;16.304;2023-01-26T06:01:58;99808.69;;;-0.40;100.00
69855;BME280;57146;48.140;16.304;2023-01-26T06:04:27;99806.88;;;-0.39;100.00
69855;BME280;57146;48.140;16.304;2023-01-26T06:06:58;99804.88;;;-0.37;100.00
69855;BME280;57146;48.140;16.304;2023-01-26T06:09:48;99811.63;;;-0.36;100.00
69855;BME280;57146;48.140;16.304;2023-01-26T06:12:41;99815.44;;;-0.39;100.00
69855;BME280;57146;48.140;16.304;2023-01-26T06:15:18;99808.47;;;-0.38;100.00
69855;BME280;57146;48.140;16.304;2023-01-26T06:17:47;99805.09;;;-0.39;100.00
69855;BME280;57146;48.140;16.304;2023-01-26T06:20:17;99806.69;;;-0.38;100.00
69855;BME280;57146;48.140;16.304;2023-01-26T06:22:58;99803.06;;;-0.37;100.00
69855;BME280;57146;48.140;16.304;2023-01-26T06:25:31;99796.47;;;-0.33;100.00
69855;BME280;57146;48.140;16.304;2023-01-26T06:28:00;99802.00;;;-0.29;100.00
69855;BME280;57146;48.140;16.304;2023-01-26T06:30:32;99799.22;;;-0.28;100.00
69855;BME280;57146;48.140;16.304;2023-01-26T06:33:04;99805.97;;;-0.27;100.00
69855;BME280;57146;48.140;16.304;2023-01-26T06:35:34;99801.44;;;-0.31;100.00
69855;BME280;57146;48.140;16.304;2023-01-26T06:38:03;99809.19;;;-0.31;100.00
69855;BME280;57146;48.140;16.304;2023-01-26T06:40:31;99808.41;;;-0.32;100.00
69855;BME280;57146;48.140;16.304;2023-01-26T06:42:58;99800.19;;;-0.29;100.00
69855;BME280;57146;48.140;16.304;2023-01-26T06:45:28;99804.59;;;-0.29;100.00
69855;BME280;57146;48.140;16.304;2023-01-26T06:47:55;99804.81;;;-0.31;100.00
69855;BME280;57146;48.140;16.304;2023-01-26T06:50:31;99806.63;;;-0.31;100.00
69855;BME280;57146;48.140;16.304;2023-01-26T06:52:59;99805.81;;;-0.32;100.00
69855;BME280;57146;48.140;16.304;2023-01-26T06:55:46;99805.81;;;-0.32;100.00
69855;BME280;57146;48.140;16.304;2023-01-26T06:58:38;99806.81;;;-0.33;100.00
69855;BME280;57146;48.140;16.304;2023-01-26T07:01:46;99813.38;;;-0.30;100.00
69855;BME280;57146;48.140;16.304;2023-01-26T07:04:13;99810.41;;;-0.34;100.00
69855;BME280;57146;48.140;16.304;2023-01-26T07:06:44;99809.19;;;-0.31;100.00
69855;BME280;57146;48.140;16.304;2023-01-26T07:09:11;99809.41;;;-0.33;100.00
69855;BME280;57146;48.140;16.304;2023-01-26T07:11:39;99806.81;;;-0.33;100.00
69855;BME280;57146;48.140;16.304;2023-01-26T07:14:06;99804.81;;;-0.31;100.00
69855;BME280;57146;48.140;16.304;2023-01-26T07:16:35;99797.84;;;-0.30;100.00
69855;BME280;57146;48.140;16.304;2023-01-26T07:19:02;99807.41;;;-0.31;100.00
69855;BME280;57146;48.140;16.304;2023-01-26T07:21:29;99802.00;;;-0.29;100.00
69855;BME280;57146;48.140;16.304;2023-01-26T07:23:56;99808.78;;;-0.28;100.00
69855;BME280;57146;48.140;16.304;2023-01-26T07:26:23;99810.34;;;-0.27;100.00
69855;BME280;57146;48.140;16.304;2023-01-26T07:29:14;99805.19;;;-0.27;100.00
69855;BME280;57146;48.140;16.304;2023-01-26T07:31:41;99805.97;;;-0.27;100.00
69855;BME280;57146;48.140;16.304;2023-01-26T07:34:10;99795.63;;;-0.27;100.00
69855;BME280;57146;48.140;16.304;2023-01-26T07:36:38;99798.19;;;-0.27;100.00
69855;BME280;57146;48.140;16.304;2023-01-26T07:39:12;99788.63;;;-0.26;100.00
69855;BME280;57146;48.140;16.304;2023-01-26T07:41:39;99798.56;;;-0.23;100.00
69855;BME280;57146;48.140;16.304;2023-01-26T07:44:24;99796.63;;;-0.28;100.00
69855;BME280;57146;48.140;16.304;2023-01-26T07:46:53;99788.50;;;-0.31;100.00
69855;BME280;57146;48.140;16.304;2023-01-26T07:49:20;99787.50;;;-0.30;100.00
69855;BME280;57146;48.140;16.304;2023-01-26T07:51:47;99790.44;;;-0.27;100.00
69855;BME280;57146;48.140;16.304;2023-01-26T07:54:38;99786.63;;;-0.24;100.00
69855;BME280;57146;48.140;16.304;2023-01-26T07:57:05;99785.84;;;-0.25;100.00
69855;BME280;57146;48.140;16.304;2023-01-26T07:59:32;99782.25;;;-0.23;100.00
69855;BME280;57146;48.140;16.304;2023-01-26T08:02:00;99787.97;;;-0.21;100.00
69855;BME280;57146;48.140;16.304;2023-01-26T08:04:28;99778.28;;;-0.26;100.00
69855;BME280;57146;48.140;16.304;2023-01-26T08:06:55;99783.25;;;-0.25;100.00
69855;BME280;57146;48.140;16.304;2023-01-26T08:09:23;99794.16;;;-0.22;100.00
69855;BME280;57146;48.140;16.304;2023-01-26T08:11:50;99782.81;;;-0.21;100.00
69855;BME280;57146;48.140;16.304;2023-01-26T08:14:18;99793.16;;;-0.21;100.00
69855;BME280;57146;48.140;16.304;2023-01-26T08:17:10;99794.59;;;-0.26;100.00
69855;BME280;57146;48.140;16.304;2023-01-26T08:19:38;99795.75;;;-0.21;100.00
69855;BME280;57146;48.140;16.304;2023-01-26T08:22:05;99789.00;;;-0.22;100.00
69855;BME280;57146;48.140;16.304;2023-01-26T08:24:33;99793.75;;;-0.19;100.00
69855;BME280;57146;48.140;16.304;2023-01-26T08:27:00;99790.56;;;-0.21;100.00
69855;BME280;57146;48.140;16.304;2023-01-26T08:29:27;99798.69;;;-0.18;100.00
69855;BME280;57146;48.140;16.304;2023-01-26T08:31:56;99792.72;;;-0.18;100.00
69855;BME280;57146;48.140;16.304;2023-01-26T08:34:23;99794.34;;;-0.17;100.00
69855;BME280;57146;48.140;16.304;2023-01-26T08:36:54;99789.59;;;-0.20;100.00
69855;BME280;57146;48.140;16.304;2023-01-26T08:39:21;99788.56;;;-0.19;100.00
69855;BME280;57146;48.140;16.304;2023-01-26T08:41:48;99791.75;;;-0.17;100.00
69855;BME280;57146;48.140;16.304;2023-01-26T08:44:16;99792.53;;;-0.17;100.00
69855;BME280;57146;48.140;16.304;2023-01-26T08:46:43;99781.16;;;-0.16;100.00
69855;BME280;57146;48.140;16.304;2023-01-26T08:49:13;99776.56;;;-0.14;100.00
69855;BME280;57146;48.140;16.304;2023-01-26T08:51:40;99780.38;;;-0.16;100.00
69855;BME280;57146;48.140;16.304;2023-01-26T08:54:07;99777.78;;;-0.16;100.00
69855;BME280;57146;48.140;16.304;2023-01-26T08:56:34;99782.97;;;-0.16;100.00
69855;BME280;57146;48.140;16.304;2023-01-26T08:59:02;99774.41;;;-0.17;100.00
69855;BME280;57146;48.140;16.304;2023-01-26T09:01:31;99769.00;;;-0.15;100.00
69855;BME280;57146;48.140;16.304;2023-01-26T09:03:58;99778.50;;;-0.09;100.00
69855;BME280;57146;48.140;16.304;2023-01-26T09:06:29;99785.13;;;-0.13;100.00
69855;BME280;57146;48.140;16.304;2023-01-26T09:08:56;99782.09;;;-0.10;100.00
69855;BME280;57146;48.140;16.304;2023-01-26T09:11:26;99775.34;;;-0.11;100.00
69855;BME280;57146;48.140;16.304;2023-01-26T09:13:58;99777.91;;;-0.11;100.00
69855;BME280;57146;48.140;16.304;2023-01-26T09:16:25;99787.47;;;-0.12;100.00
69855;BME280;57146;48.140;16.304;2023-01-26T09:18:52;99781.53;;;-0.12;100.00
69855;BME280;57146;48.140;16.304;2023-01-26T09:21:20;99785.56;;;-0.16;100.00
69855;BME280;57146;48.140;16.304;2023-01-26T09:23:48;99785.31;;;-0.15;100.00
69855;BME280;57146;48.140;16.304;2023-01-26T09:26:15;99786.94;;;-0.14;100.00
69855;BME280;57146;48.140;16.304;2023-01-26T09:28:47;99783.75;;;-0.16;100.00
69855;BME280;57146;48.140;16.304;2023-01-26T09:31:14;99786.47;;;-0.11;100.00
69855;BME280;57146;48.140;16.304;2023-01-26T09:33:41;99783.88;;;-0.11;100.00
69855;BME280;57146;48.140;16.304;2023-01-26T09:36:11;99781.09;;;-0.09;100.00
69855;BME280;57146;48.140;16.304;2023-01-26T09:38:38;99783.44;;;-0.08;100.00
69855;BME280;57146;48.140;16.304;2023-01-26T09:41:07;99782.66;;;-0.08;100.00
69855;BME280;57146;48.140;16.304;2023-01-26T09:49:15;99774.81;;;-0.02;100.00
69855;BME280;57146;48.140;16.304;2023-01-26T09:51:50;99763.09;;;-0.04;100.00
69855;BME280;57146;48.140;16.304;2023-01-26T09:54:56;99761.22;;;0.03;100.00
69855;BME280;57146;48.140;16.304;2023-01-26T09:57:31;99757.28;;;0.01;100.00
69855;BME280;57146;48.140;16.304;2023-01-26T10:00:07;99766.63;;;0.02;100.00
69855;BME280;57146;48.140;16.304;2023-01-26T10:08:35;99763.47;;;-0.01;100.00
69855;BME280;57146;48.140;16.304;2023-01-26T10:11:13;99758.63;;;0.03;100.00
69855;BME280;57146;48.140;16.304;2023-01-26T10:13:49;99760.78;;;0.06;100.00
69855;BME280;57146;48.140;16.304;2023-01-26T10:16:18;99752.47;;;0.04;100.00
69855;BME280;57146;48.140;16.304;2023-01-26T10:18:55;99755.63;;;0.06;100.00
69855;BME280;57146;48.140;16.304;2023-01-26T10:21:51;99750.00;;;0.09;100.00
69855;BME280;57146;48.140;16.304;2023-01-26T10:24:21;99742.47;;;0.08;100.00
69855;BME280;57146;48.140;16.304;2023-01-26T10:27:17;99745.63;;;0.10;100.00
69855;BME280;57146;48.140;16.304;2023-01-26T10:29:45;99750.72;;;0.16;100.00
69855;BME280;57146;48.140;16.304;2023-01-26T10:32:13;99748.28;;;0.21;100.00
69855;BME280;57146;48.140;16.304;2023-01-26T10:34:48;99742.28;;;0.21;100.00
69855;BME280;57146;48.140;16.304;2023-01-26T10:37:23;99734.38;;;0.16;100.00
69855;BME280;57146;48.140;16.304;2023-01-26T10:40:00;99728.97;;;0.17;100.00
69855;BME280;57146;48.140;16.304;2023-01-26T10:42:54;99728.53;;;0.20;100.00
69855;BME280;57146;48.140;16.304;2023-01-26T10:45:31;99723.59;;;0.19;100.00
69855;BME280;57146;48.140;16.304;2023-01-26T10:48:13;99726.09;;;0.26;100.00
69855;BME280;57146;48.140;16.304;2023-01-26T10:50:42;99716.72;;;0.24;100.00
69855;BME280;57146;48.140;16.304;2023-01-26T10:56:16;99718.53;;;0.24;100.00
69855;BME280;57146;48.140;16.304;2023-01-26T10:59:09;99704.38;;;0.27;100.00
69855;BME280;57146;48.140;16.304;2023-01-26T11:01:58;99705.16;;;0.27;100.00
69855;BME280;57146;48.140;16.304;2023-01-26T11:04:27;99703.94;;;0.30;100.00
69855;BME280;57146;48.140;16.304;2023-01-26T11:06:54;99700.13;;;0.32;100.00
69855;BME280;57146;48.140;16.304;2023-01-26T11:09:26;99694.13;;;0.32;100.00
69855;BME280;57146;48.140;16.304;2023-01-26T11:12:21;99692.91;;;0.34;100.00
69855;BME280;57146;48.140;16.304;2023-01-26T11:14:59;99694.94;;;0.32;100.00
69855;BME280;57146;48.140;16.304;2023-01-26T11:17:58;99690.31;;;0.34;100.00
69855;BME280;57146;48.140;16.304;2023-01-26T11:29:07;99672.31;;;0.39;100.00
69855;BME280;57146;48.140;16.304;2023-01-26T11:37:30;99665.78;;;0.37;100.00
69855;BME280;57146;48.140;16.304;2023-01-26T11:40:13;99661.97;;;0.39;100.00
69855;BME280;57146;48.140;16.304;2023-01-26T11:45:26;99654.97;;;0.40;100.00
69855;BME280;57146;48.140;16.304;2023-01-26T11:54:05;99639.00;;;0.43;100.00
69855;BME280;57146;48.140;16.304;2023-01-26T11:57:00;99635.94;;;0.46;100.00
69855;BME280;57146;48.140;16.304;2023-01-26T12:00:01;99641.69;;;0.48;100.00
69855;BME280;57146;48.140;16.304;2023-01-26T12:02:38;99635.16;;;0.45;100.00
69855;BME280;57146;48.140;16.304;2023-01-26T12:05:15;99633.56;;;0.44;100.00
69855;BME280;57146;48.140;16.304;2023-01-26T12:08:05;99634.69;;;0.48;100.00
69855;BME280;57146;48.140;16.304;2023-01-26T12:10:47;99633.47;;;0.51;100.00
69855;BME280;57146;48.140;16.304;2023-01-26T12:13:27;99621.53;;;0.50;100.00
69855;BME280;57146;48.140;16.304;2023-01-26T12:16:02;99624.69;;;0.52;100.00
69855;BME280;57146;48.140;16.304;2023-01-26T12:19:15;99623.31;;;0.50;100.00
69855;BME280;57146;48.140;16.304;2023-01-26T12:21:53;99613.97;;;0.48;100.00
69855;BME280;57146;48.140;16.304;2023-01-26T12:24:37;99614.31;;;0.52;100.00
69855;BME280;57146;48.140;16.304;2023-01-26T12:27:34;99615.09;;;0.53;100.00
69855;BME280;57146;48.140;16.304;2023-01-26T12:30:21;99605.53;;;0.53;100.00
69855;BME280;57146;48.140;16.304;2023-01-26T12:32:52;99604.75;;;0.53;100.00
69855;BME280;57146;48.140;16.304;2023-01-26T12:35:29;99604.28;;;0.56;100.00
69855;BME280;57146;48.140;16.304;2023-01-26T12:38:13;99599.91;;;0.56;100.00
69855;BME280;57146;48.140;16.304;2023-01-26T12:41:01;99595.50;;;0.57;100.00
69855;BME280;57146;48.140;16.304;2023-01-26T12:44:16;99594.28;;;0.59;100.00
69855;BME280;57146;48.140;16.304;2023-01-26T12:46:51;99591.47;;;0.61;100.00
69855;BME280;57146;48.140;16.304;2023-01-26T12:49:21;99587.53;;;0.58;100.00
69855;BME280;57146;48.140;16.304;2023-01-26T12:51:54;99589.66;;;0.61;99.88
69855;BME280;57146;48.140;16.304;2023-01-26T12:57:53;99597.66;;;0.60;99.71
69855;BME280;57146;48.140;16.304;2023-01-26T13:00:28;99593.03;;;0.62;100.00
69855;BME280;57146;48.140;16.304;2023-01-26T13:06:17;99586.06;;;0.62;98.07
69855;BME280;57146;48.140;16.304;2023-01-26T13:09:34;99587.75;;;0.68;97.66
69855;BME280;57146;48.140;16.304;2023-01-26T13:14:31;99579.63;;;0.77;96.96
69855;BME280;57146;48.140;16.304;2023-01-26T13:25:11;99581.97;;;0.78;97.84
69855;BME280;57146;48.140;16.304;2023-01-26T13:30:38;99588.88;;;0.73;97.82
69855;BME280;57146;48.140;16.304;2023-01-26T13:33:09;99588.75;;;0.67;98.32
69855;BME280;57146;48.140;16.304;2023-01-26T13:35:38;99585.38;;;0.67;99.61
69855;BME280;57146;48.140;16.304;2023-01-26T13:40:39;99587.28;;;0.71;99.38
69855;BME280;57146;48.140;16.304;2023-01-26T13:46:16;99591.69;;;0.83;98.79
69855;BME280;57146;48.140;16.304;2023-01-26T13:48:51;99593.25;;;0.84;99.33
69855;BME280;57146;48.140;16.304;2023-01-26T13:54:14;99590.88;;;0.94;98.40
69855;BME280;57146;48.140;16.304;2023-01-26T13:57:03;99590.63;;;0.95;98.72
69855;BME280;57146;48.140;16.304;2023-01-26T13:59:32;99586.00;;;0.98;98.10
69855;BME280;57146;48.140;16.304;2023-01-26T14:02:32;99580.81;;;0.98;98.11
69855;BME280;57146;48.140;16.304;2023-01-26T14:05:01;99587.25;;;0.95;97.79
69855;BME280;57146;48.140;16.304;2023-01-26T14:07:42;99592.44;;;0.95;97.54
69855;BME280;57146;48.140;16.304;2023-01-26T14:10:22;99592.44;;;0.95;96.84
69855;BME280;57146;48.140;16.304;2023-01-26T14:12:54;99589.06;;;0.94;97.01
69855;BME280;57146;48.140;16.304;2023-01-26T14:15:26;99594.00;;;0.96;95.94
69855;BME280;57146;48.140;16.304;2023-01-26T14:18:00;99592.44;;;0.95;97.29
69855;BME280;57146;48.140;16.304;2023-01-26T14:21:00;99593.22;;;0.95;96.89
69855;BME280;57146;48.140;16.304;2023-01-26T14:23:57;99602.81;;;0.95;95.85
69855;BME280;57146;48.140;16.304;2023-01-26T14:26:32;99595.25;;;0.93;96.10
69855;BME280;57146;48.140;16.304;2023-01-26T14:29:01;99583.97;;;1.00;96.52